| time (UTC) | temp C | wind direction | speed KPH | gust KPH | rain 1hr cm | rain 24hr cm | rain mn cm | humidity % | barometer mb |
| 20260510211051 | 8 | 156 | 3.2 | 9.7 | 0.00 | 0.15 | 0.15 | 79 | 1013.0 |
| 20260510210046 | 8 | 193 | 3.2 | 6.4 | 0.00 | 0.15 | 0.15 | 79 | 1013.0 |
| 20260510205041 | 9 | 146 | 4.8 | 9.7 | 0.00 | 0.15 | 0.15 | 80 | 1013.0 |
| 20260510204036 | 9 | 167 | 4.8 | 6.4 | 0.00 | 0.15 | 0.15 | 79 | 1012.9 |
| 20260510203031 | 9 | 175 | 6.4 | 11.3 | 0.00 | 0.15 | 0.15 | 79 | 1012.8 |
| 20260510202025 | 9 | 198 | 4.8 | 6.4 | 0.00 | 0.15 | 0.15 | 78 | 1012.7 |
| 20260510201020 | 9 | 190 | 4.8 | 9.7 | 0.00 | 0.15 | 0.15 | 77 | 1012.4 |
| 20260510200116 | 10 | 199 | 6.4 | 9.7 | 0.00 | 0.15 | 0.15 | 76 | 1012.3 |
| 20260510195132 | 10 | 173 | 6.4 | 6.4 | 0.00 | 0.15 | 0.15 | 76 | 1012.2 |
| 20260510194106 | 10 | 186 | 4.8 | 6.4 | 0.00 | 0.15 | 0.15 | 74 | 1012.1 |
| 20260510193121 | 10 | 198 | 3.2 | 6.4 | 0.00 | 0.15 | 0.15 | 74 | 1012.2 |
| 20260510192056 | 10 | 187 | 4.8 | 9.7 | 0.00 | 0.15 | 0.15 | 73 | 1012.2 |
| 20260510191112 | 10 | 222 | 4.8 | 9.7 | 0.00 | 0.15 | 0.15 | 73 | 1012.1 |
| 20260510190046 | 10 | 217 | 4.8 | 9.7 | 0.00 | 0.15 | 0.15 | 72 | 1011.9 |
| 20260510185041 | 10 | 206 | 4.8 | 11.3 | 0.00 | 0.15 | 0.15 | 71 | 1012.0 |
| 20260510184036 | 10 | 209 | 6.4 | 11.3 | 0.00 | 0.15 | 0.15 | 70 | 1011.8 |
| 20260510183031 | 10 | 223 | 6.4 | 12.9 | 0.00 | 0.15 | 0.15 | 70 | 1011.6 |
| 20260510182026 | 10 | 203 | 9.7 | 17.7 | 0.00 | 0.15 | 0.15 | 70 | 1011.8 |
| 20260510181021 | 10 | 196 | 17.7 | 27.4 | 0.00 | 0.15 | 0.15 | 78 | 1012.0 |
| 20260510180016 | 11 | 229 | 22.5 | 38.6 | 0.00 | 0.15 | 0.15 | 75 | 1011.9 |
| 20260510175111 | 11 | 228 | 16.1 | 25.7 | 0.00 | 0.15 | 0.15 | 64 | 1011.7 |
| 20260510174106 | 11 | 240 | 11.3 | 22.5 | 0.00 | 0.15 | 0.15 | 63 | 1011.6 |
| 20260510173101 | 11 | 217 | 12.9 | 22.5 | 0.00 | 0.15 | 0.15 | 65 | 1011.4 |
| 20260510172056 | 11 | 237 | 11.3 | 24.1 | 0.00 | 0.15 | 0.15 | 66 | 1011.4 |
| 20260510171051 | 10 | 253 | 11.3 | 17.7 | 0.00 | 0.15 | 0.15 | 70 | 1011.2 |
| 20260510170047 | 10 | 303 | 12.9 | 24.1 | 0.00 | 0.15 | 0.15 | 70 | 1011.4 |
| 20260510165042 | 12 | 293 | 19.3 | 37.0 | 0.00 | 0.15 | 0.15 | 68 | 1011.1 |
| 20260510164056 | 12 | 262 | 11.3 | 22.5 | 0.00 | 0.15 | 0.15 | 68 | 1010.9 |
| 20260510163031 | 13 | 281 | 17.7 | 25.7 | 0.00 | 0.15 | 0.15 | 65 | 1010.8 |
| 20260510162047 | 13 | 240 | 17.7 | 27.4 | 0.00 | 0.15 | 0.15 | 60 | 1010.7 |
| 20260510161042 | 13 | 228 | 11.3 | 20.9 | 0.00 | 0.15 | 0.15 | 59 | 1010.6 |
| 20260510160037 | 13 | 200 | 12.9 | 24.1 | 0.00 | 0.15 | 0.15 | 60 | 1010.7 |
| 20260510155132 | 13 | 215 | 16.1 | 40.2 | 0.00 | 0.15 | 0.15 | 60 | 1010.4 |
| 20260510154127 | 12 | 208 | 17.7 | 33.8 | 0.00 | 0.15 | 0.15 | 60 | 1010.5 |
| 20260510153103 | 13 | 242 | 17.7 | 29.0 | 0.00 | 0.15 | 0.15 | 57 | 1010.6 |
| 20260510152057 | 13 | 191 | 22.5 | 37.0 | 0.00 | 0.15 | 0.15 | 56 | 1010.6 |
| 20260510151132 | 13 | 160 | 19.3 | 35.4 | 0.00 | 0.15 | 0.15 | 58 | 1010.5 |
| 20260510150047 | 13 | 201 | 25.7 | 38.6 | 0.00 | 0.15 | 0.15 | 59 | 1010.6 |
| 20260510145042 | 13 | 228 | 19.3 | 37.0 | 0.00 | 0.15 | 0.15 | 60 | 1010.9 |
| 20260510144037 | 12 | 218 | 22.5 | 35.4 | 0.00 | 0.15 | 0.15 | 59 | 1011.0 |
| 20260510143034 | 12 | 220 | 20.9 | 38.6 | 0.00 | 0.15 | 0.15 | 62 | 1011.2 |
| 20260510142028 | 12 | 205 | 19.3 | 33.8 | 0.00 | 0.15 | 0.15 | 65 | 1011.1 |
| 20260510141022 | 12 | 217 | 16.1 | 29.0 | 0.00 | 0.18 | 0.15 | 68 | 1011.4 |
| 20260510140017 | 11 | 199 | 20.9 | 32.2 | 0.00 | 0.20 | 0.15 | 69 | 1011.4 |
| 20260510135113 | 11 | 216 | 17.7 | 27.4 | 0.00 | 0.20 | 0.15 | 72 | 1011.5 |
| 20260510134108 | 11 | 172 | 17.7 | 27.4 | 0.00 | 0.20 | 0.15 | 74 | 1011.6 |
| 20260510133103 | 11 | 210 | 17.7 | 25.7 | 0.00 | 0.20 | 0.15 | 74 | 1011.8 |
| 20260510132058 | 11 | 188 | 12.9 | 25.7 | 0.00 | 0.23 | 0.15 | 76 | 1011.8 |
| 20260510131053 | 10 | 204 | 12.9 | 17.7 | 0.00 | 0.23 | 0.15 | 79 | 1011.8 |
| 20260510130048 | 10 | 214 | 12.9 | 17.7 | 0.00 | 0.23 | 0.15 | 79 | 1012.1 |
| 20260510125043 | 10 | 208 | 12.9 | 20.9 | 0.00 | 0.23 | 0.15 | 80 | 1012.0 |
| 20260510124037 | 9 | 222 | 6.4 | 11.3 | 0.00 | 0.23 | 0.15 | 83 | 1012.3 |
| 20260510123032 | 8 | 202 | 6.4 | 11.3 | 0.03 | 0.23 | 0.15 | 84 | 1012.4 |
| 20260510122027 | 8 | 265 | 6.4 | 11.3 | 0.05 | 0.23 | 0.15 | 86 | 1012.5 |
| 20260510121023 | 8 | 269 | 4.8 | 12.9 | 0.05 | 0.23 | 0.15 | 87 | 1012.5 |
| 20260510120059 | 7 | 262 | 9.7 | 12.9 | 0.05 | 0.23 | 0.15 | 88 | 1012.5 |
| 20260510115133 | 8 | 233 | 9.7 | 22.5 | 0.05 | 0.23 | 0.15 | 89 | 1013.0 |
| 20260510114108 | 8 | 240 | 12.9 | 25.7 | 0.05 | 0.23 | 0.15 | 89 | 1013.0 |
| 20260510113103 | 9 | 225 | 17.7 | 32.2 | 0.03 | 0.20 | 0.13 | 85 | 1013.0 |
| 20260510112058 | 10 | 208 | 19.3 | 27.4 | 0.00 | 0.18 | 0.10 | 81 | 1012.7 |
| 20260510111053 | 10 | 221 | 25.7 | 43.5 | 0.00 | 0.18 | 0.10 | 77 | 1012.5 |
| 20260510110049 | 11 | 217 | 30.6 | 46.7 | 0.00 | 0.18 | 0.10 | 75 | 1012.2 |
| 20260510105043 | 11 | 214 | 20.9 | 27.4 | 0.00 | 0.18 | 0.10 | 71 | 1011.8 |
| 20260510104038 | 11 | 216 | 20.9 | 35.4 | 0.00 | 0.18 | 0.10 | 68 | 1011.6 |
| 20260510103033 | 12 | 199 | 19.3 | 37.0 | 0.00 | 0.18 | 0.10 | 69 | 1011.5 |
| 20260510102028 | 12 | 188 | 17.7 | 27.4 | 0.00 | 0.18 | 0.10 | 67 | 1011.4 |
| 20260510101023 | 12 | 204 | 19.3 | 35.4 | 0.00 | 0.18 | 0.10 | 66 | 1011.3 |
| 20260510100018 | 12 | 204 | 14.5 | 25.7 | 0.00 | 0.18 | 0.10 | 67 | 1011.3 |
| 20260510095133 | 12 | 189 | 17.7 | 33.8 | 0.00 | 0.18 | 0.10 | 68 | 1011.4 |
| 20260510094110 | 12 | 216 | 16.1 | 25.7 | 0.00 | 0.18 | 0.10 | 70 | 1011.7 |
| 20260510093104 | 11 | 187 | 19.3 | 29.0 | 0.00 | 0.18 | 0.10 | 68 | 1011.7 |
| 20260510092139 | 11 | 180 | 17.7 | 25.7 | 0.00 | 0.18 | 0.10 | 70 | 1011.6 |
| 20260510091113 | 12 | 185 | 16.1 | 29.0 | 0.00 | 0.18 | 0.10 | 70 | 1011.6 |
| 20260510090049 | 11 | 203 | 17.7 | 27.4 | 0.00 | 0.18 | 0.10 | 69 | 1011.6 |
| 20260510085044 | 11 | 206 | 12.9 | 20.9 | 0.00 | 0.18 | 0.10 | 72 | 1011.8 |
| 20260510084038 | 11 | 195 | 16.1 | 24.1 | 0.00 | 0.18 | 0.10 | 74 | 1011.9 |
| 20260510083054 | 10 | 204 | 12.9 | 20.9 | 0.00 | 0.18 | 0.10 | 78 | 1011.8 |
| 20260510082048 | 10 | 209 | 12.9 | 17.7 | 0.00 | 0.18 | 0.10 | 81 | 1012.1 |
| 20260510081023 | 10 | 197 | 12.9 | 22.5 | 0.00 | 0.18 | 0.10 | 82 | 1012.1 |
| 20260510080018 | 9 | 195 | 11.3 | 17.7 | 0.00 | 0.18 | 0.10 | 83 | 1012.1 |
| 20260510075114 | 9 | 223 | 8.0 | 17.7 | 0.00 | 0.18 | 0.10 | 86 | 1012.2 |
| 20260510074109 | 8 | 199 | 8.0 | 14.5 | 0.00 | 0.18 | 0.10 | 87 | 1012.3 |
| 20260510073103 | 8 | 186 | 6.4 | 11.3 | 0.00 | 0.18 | 0.10 | 87 | 1012.2 |
| 20260510072059 | 8 | 213 | 9.7 | 14.5 | 0.00 | 0.18 | 0.10 | 87 | 1012.1 |
| 20260510071053 | 8 | 202 | 8.0 | 14.5 | 0.00 | 0.18 | 0.10 | 88 | 1012.2 |
| 20260510070048 | 8 | 205 | 8.0 | 12.9 | 0.00 | 0.18 | 0.10 | 89 | 1012.1 |
| 20260510065043 | 8 | 203 | 8.0 | 14.5 | 0.00 | 0.18 | 0.10 | 89 | 1012.1 |
| 20260510064038 | 8 | 205 | 8.0 | 12.9 | 0.00 | 0.18 | 0.10 | 89 | 1012.0 |
| 20260510063033 | 8 | 207 | 9.7 | 14.5 | 0.00 | 0.18 | 0.10 | 89 | 1012.0 |
| 20260510062028 | 8 | 214 | 9.7 | 14.5 | 0.00 | 0.18 | 0.10 | 89 | 1011.9 |
| 20260510061025 | 8 | 218 | 8.0 | 12.9 | 0.00 | 0.18 | 0.10 | 89 | 1011.8 |
| 20260510060018 | 8 | 191 | 9.7 | 14.5 | 0.00 | 0.18 | 0.10 | 89 | 1011.6 |
| 20260510055113 | 8 | 217 | 4.8 | 12.9 | 0.00 | 0.18 | 0.10 | 90 | 1011.6 |
| 20260510054109 | 7 | 195 | 8.0 | 11.3 | 0.00 | 0.18 | 0.10 | 91 | 1011.6 |
| 20260510053104 | 7 | 197 | 9.7 | 14.5 | 0.00 | 0.18 | 0.10 | 91 | 1011.7 |
| 20260510052118 | 7 | 203 | 6.4 | 11.3 | 0.00 | 0.18 | 0.10 | 91 | 1011.5 |
| 20260510051053 | 7 | 206 | 9.7 | 14.5 | 0.00 | 0.18 | 0.10 | 91 | 1011.6 |
| 20260510050108 | 7 | 206 | 8.0 | 12.9 | 0.00 | 0.18 | 0.10 | 91 | 1011.6 |
| 20260510045103 | 7 | 211 | 8.0 | 12.9 | 0.00 | 0.18 | 0.10 | 91 | 1011.4 |
| 20260510044038 | 7 | 202 | 9.7 | 17.7 | 0.00 | 0.18 | 0.10 | 91 | 1011.4 |
| 20260510043033 | 7 | 225 | 8.0 | 14.5 | 0.00 | 0.18 | 0.10 | 91 | 1011.6 |
| 20260510042028 | 7 | 204 | 11.3 | 17.7 | 0.00 | 0.18 | 0.10 | 91 | 1011.6 |
| 20260510041023 | 7 | 207 | 11.3 | 14.5 | 0.00 | 0.18 | 0.10 | 91 | 1011.6 |
| 20260510040019 | 7 | 191 | 11.3 | 14.5 | 0.00 | 0.18 | 0.10 | 91 | 1011.6 |
| 20260510035113 | 7 | 194 | 9.7 | 14.5 | 0.00 | 0.18 | 0.10 | 91 | 1011.6 |
| 20260510034108 | 7 | 190 | 6.4 | 12.9 | 0.00 | 0.18 | 0.10 | 91 | 1011.7 |
| 20260510033103 | 7 | 211 | 9.7 | 12.9 | 0.00 | 0.18 | 0.10 | 91 | 1011.8 |
| 20260510032058 | 7 | 208 | 8.0 | 12.9 | 0.00 | 0.18 | 0.10 | 91 | 1011.7 |
| 20260510031054 | 8 | 207 | 9.7 | 14.5 | 0.00 | 0.18 | 0.10 | 91 | 1011.9 |
| 20260510030048 | 8 | 196 | 8.0 | 11.3 | 0.00 | 0.18 | 0.10 | 91 | 1011.6 |
| 20260510025043 | 8 | 218 | 8.0 | 14.5 | 0.00 | 0.18 | 0.10 | 91 | 1011.7 |
| 20260510024122 | 8 | 205 | 9.7 | 17.7 | 0.00 | 0.18 | 0.10 | 92 | 1012.0 |
| 20260510023033 | 8 | 199 | 9.7 | 17.7 | 0.00 | 0.18 | 0.10 | 92 | 1011.9 |
| 20260510022028 | 8 | 194 | 11.3 | 14.5 | 0.00 | 0.18 | 0.10 | 92 | 1011.7 |
| 20260510021023 | 8 | 173 | 11.3 | 12.9 | 0.00 | 0.18 | 0.10 | 92 | 1011.7 |
| 20260510020019 | 8 | 186 | 8.0 | 14.5 | 0.00 | 0.18 | 0.10 | 92 | 1011.8 |
| 20260510015115 | 8 | 203 | 8.0 | 12.9 | 0.00 | 0.18 | 0.10 | 91 | 1011.9 |
| 20260510014109 | 8 | 195 | 8.0 | 12.9 | 0.00 | 0.18 | 0.10 | 90 | 1012.0 |
| 20260510013124 | 8 | 203 | 9.7 | 12.9 | 0.00 | 0.18 | 0.10 | 90 | 1011.9 |
| 20260510012059 | 8 | 202 | 6.4 | 12.9 | 0.03 | 0.18 | 0.10 | 90 | 1011.9 |
| 20260510011114 | 8 | 227 | 12.9 | 17.7 | 0.05 | 0.18 | 0.10 | 90 | 1012.1 |
| 20260510010050 | 9 | 225 | 14.5 | 24.1 | 0.05 | 0.18 | 0.10 | 91 | 1012.2 |
| 20260510005104 | 9 | 213 | 9.7 | 17.7 | 0.10 | 0.18 | 0.10 | 91 | 1012.3 |
| 20260510004039 | 9 | 225 | 9.7 | 17.7 | 0.10 | 0.18 | 0.10 | 91 | 1012.3 |
| 20260510003034 | 9 | 214 | 8.0 | 12.9 | 0.10 | 0.18 | 0.10 | 90 | 1012.2 |
| 20260510002029 | 10 | 194 | 9.7 | 12.9 | 0.05 | 0.15 | 0.05 | 89 | 1012.2 |
| 20260510001024 | 10 | 219 | 11.3 | 14.5 | 0.03 | 0.13 | 0.03 | 86 | 1012.1 |
| 20260510000019 | 10 | 221 | 14.5 | 20.9 | 0.03 | 0.13 | 0.03 | 84 | 1012.2 |
| 20260509235114 | 10 | 200 | 17.7 | 33.8 | 0.00 | 0.10 | 0.00 | 80 | 1012.2 |
| 20260509234109 | 10 | 214 | 12.9 | 22.5 | 0.00 | 0.10 | 0.00 | 79 | 1012.0 |
| 20260509233125 | 10 | 189 | 11.3 | 14.5 | 0.00 | 0.10 | 0.00 | 81 | 1012.0 |
| 20260509232059 | 10 | 187 | 8.0 | 11.3 | 0.00 | 0.10 | 0.00 | 82 | 1012.0 |
| 20260509231054 | 10 | 207 | 6.4 | 12.9 | 0.00 | 0.10 | 0.00 | 83 | 1011.8 |
| 20260509230050 | 10 | 198 | 6.4 | 11.3 | 0.00 | 0.10 | 0.00 | 82 | 1011.7 |
| 20260509225044 | 10 | 207 | 4.8 | 9.7 | 0.00 | 0.10 | 0.00 | 81 | 1011.8 |
| 20260509224039 | 10 | 218 | 4.8 | 9.7 | 0.00 | 0.10 | 0.00 | 80 | 1011.8 |
| 20260509223054 | 11 | 192 | 3.2 | 6.4 | 0.00 | 0.10 | 0.00 | 78 | 1011.5 |
| 20260509222049 | 11 | 194 | 4.8 | 9.7 | 0.00 | 0.10 | 0.00 | 77 | 1011.6 |
| 20260509221024 | 11 | 202 | 8.0 | 12.9 | 0.00 | 0.10 | 0.00 | 75 | 1011.4 |
| 20260509220019 | 11 | 207 | 11.3 | 17.7 | 0.00 | 0.10 | 0.00 | 73 | 1011.3 |
| 20260509215114 | 12 | 195 | 8.0 | 14.5 | 0.00 | 0.10 | 0.10 | 75 | 1011.2 |
| 20260509214131 | 12 | 179 | 11.3 | 25.7 | 0.00 | 0.10 | 0.10 | 75 | 1011.1 |
| 20260509213105 | 12 | 160 | 11.3 | 22.5 | 0.00 | 0.10 | 0.10 | 75 | 1011.2 |
| 20260509212101 | 12 | 192 | 8.0 | 17.7 | 0.00 | 0.10 | 0.10 | 74 | 1011.1 |